Time;durP1;ratioP1;P1;durP2;ratioP2;P2;SDS_P1;SDS_P2;PMS_P1;PMS_P2;Temp;Humidity;BMP_temperature;BMP_pressure;BME280_temperature;BME280_humidity;BME280_pressure;Samples;Min_cycle;Max_cycle;Signal;HPM_P1;HPM_P2
2022/10/23 00:01:26;;;;;;;15.80;6.60;;;15.20;99.90;;;;;;5095093;28;20110;-73
2022/10/23 00:04:04;;;;;;;18.60;5.60;;;15.20;99.90;;;;;;5094382;28;20022;-72
2022/10/23 00:06:32;;;;;;;26.05;6.38;;;15.10;99.90;;;;;;5063162;28;20047;-72
2022/10/23 00:08:57;;;;;;;20.02;5.43;;;15.10;99.90;;;;;;5094481;28;20024;-73
2022/10/23 00:11:26;;;;;;;17.15;5.20;;;15.20;99.90;;;;;;5095165;28;20035;-72
2022/10/23 00:13:58;;;;;;;16.00;6.07;;;15.10;99.90;;;;;;5094996;28;20041;-72
2022/10/23 00:16:24;;;;;;;25.40;5.38;;;15.00;99.90;;;;;;5094652;28;20036;-72
2022/10/23 00:18:50;;;;;;;14.50;5.53;;;15.00;99.90;;;;;;5094826;28;20024;-69
2022/10/23 00:21:16;;;;;;;17.98;5.00;;;14.90;99.90;;;;;;5076022;28;20043;-70
2022/10/23 00:23:43;;;;;;;20.85;5.47;;;15.20;99.90;;;;;;5074525;28;20028;-72
2022/10/23 00:26:15;;;;;;;26.55;5.88;;;15.10;99.90;;;;;;5074277;28;20047;-72
2022/10/23 00:28:46;;;;;;;16.77;5.65;;;15.20;99.90;;;;;;5074091;28;20028;-73
2022/10/23 00:31:13;;;;;;;18.33;5.63;;;15.20;99.90;;;;;;5056323;28;20481;-72
2022/10/23 00:33:40;;;;;;;23.80;5.43;;;15.20;99.90;;;;;;5073767;28;20032;-72
2022/10/23 00:36:08;;;;;;;17.50;5.05;;;15.30;99.90;;;;;;5074387;28;20534;-72
2022/10/23 00:38:34;;;;;;;21.17;5.88;;;15.40;99.90;;;;;;5055956;28;20028;-74
2022/10/23 00:41:02;;;;;;;14.25;5.45;;;15.20;99.90;;;;;;5056093;28;20035;-73
2022/10/23 00:43:29;;;;;;;13.55;4.85;;;15.30;99.90;;;;;;5073759;28;20545;-72
2022/10/23 00:45:56;;;;;;;15.25;5.07;;;15.20;99.90;;;;;;5073919;28;20515;-72
2022/10/23 00:48:22;;;;;;;17.00;5.22;;;15.10;99.90;;;;;;5055812;28;20032;-72
2022/10/23 00:50:49;;;;;;;12.70;5.20;;;15.10;99.90;;;;;;5073697;28;20016;-72
2022/10/23 00:53:17;;;;;;;19.48;5.75;;;15.20;99.90;;;;;;5055973;28;20024;-72
2022/10/23 00:55:45;;;;;;;13.98;5.15;;;15.10;99.90;;;;;;5073564;28;20025;-72
2022/10/23 00:58:17;;;;;;;20.63;5.70;;;15.20;99.90;;;;;;5071737;28;20027;-72
2022/10/23 01:00:47;;;;;;;17.27;5.55;;;15.30;99.90;;;;;;5073909;28;20107;-71
2022/10/23 01:03:16;;;;;;;15.82;5.13;;;15.20;99.90;;;;;;5073052;28;20036;-69
2022/10/23 01:05:56;;;;;;;27.33;6.70;;;15.20;99.90;;;;;;5073495;28;20384;-69
2022/10/23 01:08:36;;;;;;;12.80;5.50;;;15.30;99.90;;;;;;5055508;28;20366;-71
2022/10/23 01:11:23;;;;;;;13.50;5.28;;;15.40;99.90;;;;;;5055849;28;20036;-70
2022/10/23 01:14:05;;;;;;;16.25;5.05;;;15.40;99.90;;;;;;5059693;28;20060;-71
2022/10/23 01:17:18;;;;;;;13.88;4.72;;;15.20;99.90;;;;;;5054638;28;20507;-71
2022/10/23 01:20:09;;;;;;;12.70;4.80;;;15.00;99.90;;;;;;5054873;28;20024;-70
2022/10/23 01:22:40;;;;;;;16.83;4.72;;;15.00;99.90;;;;;;5055490;28;20676;-71
2022/10/23 01:25:23;;;;;;;20.30;6.13;;;15.00;99.90;;;;;;5073026;28;20056;-72
2022/10/23 01:28:00;;;;;;;8.40;3.92;;;14.90;99.90;;;;;;5073347;28;20460;-72
2022/10/23 01:30:26;;;;;;;15.80;5.03;;;14.90;99.90;;;;;;5054656;28;20021;-71
2022/10/23 01:33:07;;;;;;;12.43;4.35;;;15.10;99.90;;;;;;5054984;28;20025;-71
2022/10/23 01:35:45;;;;;;;12.60;4.80;;;15.10;99.90;;;;;;5054728;28;20051;-69
2022/10/23 01:38:35;;;;;;;16.58;4.90;;;15.10;99.90;;;;;;5073357;28;20032;-67
2022/10/23 01:41:19;;;;;;;15.50;5.18;;;15.10;99.90;;;;;;5043047;28;20032;-68
2022/10/23 01:43:59;;;;;;;12.95;4.35;;;15.10;99.90;;;;;;5054975;28;20031;-68
2022/10/23 01:46:30;;;;;;;21.05;4.95;;;15.20;99.90;;;;;;5054744;28;20090;-68
2022/10/23 01:48:57;;;;;;;12.60;5.05;;;15.10;99.90;;;;;;5054971;28;20115;-69
2022/10/23 01:51:26;;;;;;;13.98;4.63;;;15.10;99.90;;;;;;5073129;28;20392;-69
2022/10/23 01:53:57;;;;;;;18.77;4.60;;;15.10;99.90;;;;;;5054543;28;20174;-68
2022/10/23 01:56:31;;;;;;;12.43;4.15;;;15.10;99.90;;;;;;5054556;28;20036;-69
2022/10/23 01:59:01;;;;;;;15.40;4.88;;;15.20;99.90;;;;;;5054591;28;20028;-68
2022/10/23 02:01:33;;;;;;;16.25;4.97;;;15.10;99.90;;;;;;5053599;28;20047;-68
2022/10/23 02:04:02;;;;;;;10.73;4.15;;;15.10;99.90;;;;;;5072202;28;20017;-68
2022/10/23 02:06:28;;;;;;;9.38;3.67;;;15.10;99.90;;;;;;5035287;28;20390;-68
2022/10/23 02:08:54;;;;;;;13.95;4.53;;;15.10;99.90;;;;;;5046018;28;20488;-68
2022/10/23 02:11:21;;;;;;;20.40;4.38;;;15.10;99.90;;;;;;5054489;28;20488;-68
2022/10/23 02:13:55;;;;;;;15.63;4.70;;;15.00;99.90;;;;;;5072928;28;20031;-68
2022/10/23 02:16:24;;;;;;;12.73;4.18;;;15.00;99.90;;;;;;5071549;28;20039;-68
2022/10/23 02:19:30;;;;;;;17.30;4.57;;;14.90;99.90;;;;;;5054384;28;20047;-68
2022/10/23 02:22:29;;;;;;;11.30;4.47;;;14.80;99.90;;;;;;5054576;28;20029;-68
2022/10/23 02:25:08;;;;;;;18.52;4.70;;;14.80;99.90;;;;;;5054028;28;20029;-71
2022/10/23 02:28:03;;;;;;;13.32;4.30;;;15.00;99.90;;;;;;5054083;28;20033;-71
2022/10/23 02:30:40;;;;;;;17.65;4.50;;;15.10;99.90;;;;;;5054169;28;20031;-71
2022/10/23 02:33:10;;;;;;;;;;;15.00;99.90;;;;;;5054836;28;20021;-68
2022/10/23 02:35:36;;;;;;;11.25;4.35;;;15.00;99.90;;;;;;5054111;28;19970;-68
2022/10/23 02:38:40;;;;;;;12.27;3.78;;;15.00;99.90;;;;;;5054161;28;20021;-72
2022/10/23 02:41:21;;;;;;;13.82;4.25;;;15.00;99.90;;;;;;5054079;28;20035;-68
2022/10/23 02:44:04;;;;;;;11.70;4.40;;;14.90;99.90;;;;;;5053654;28;20085;-68
2022/10/23 02:47:15;;;;;;;15.98;4.63;;;14.90;99.90;;;;;;5054207;28;20040;-67
2022/10/23 02:50:08;;;;;;;11.27;4.43;;;15.00;99.90;;;;;;5027486;28;20041;-71
2022/10/23 02:53:11;;;;;;;24.48;4.30;;;15.10;99.90;;;;;;5041117;28;20032;-69
2022/10/23 02:55:49;;;;;;;10.70;4.22;;;15.20;99.90;;;;;;5050490;28;20040;-68
2022/10/23 02:58:23;;;;;;;12.45;3.50;;;15.10;99.90;;;;;;5071697;28;20033;-69
2022/10/23 03:01:00;;;;;;;16.77;4.25;;;15.00;99.90;;;;;;5053853;28;20024;-67
2022/10/23 03:03:31;;;;;;;14.10;3.72;;;14.90;99.90;;;;;;5053916;28;20031;-68
2022/10/23 03:05:57;;;;;;;9.38;3.38;;;14.90;99.90;;;;;;5053711;28;20056;-68
2022/10/23 03:08:23;;;;;;;11.38;3.55;;;14.80;99.90;;;;;;5053500;28;20047;-68
2022/10/23 03:10:50;;;;;;;14.82;3.78;;;14.90;99.90;;;;;;5054120;28;20020;-67
2022/10/23 03:13:17;;;;;;;14.15;4.05;;;14.90;99.90;;;;;;5053483;28;20021;-67
2022/10/23 03:15:43;;;;;;;13.13;4.13;;;14.90;99.90;;;;;;5071935;28;20081;-67
2022/10/23 03:18:12;;;;;;;11.93;4.10;;;14.90;99.90;;;;;;5053604;28;20048;-67
2022/10/23 03:20:39;;;;;;;11.85;3.65;;;15.00;99.90;;;;;;5054133;28;20195;-67
2022/10/23 03:23:05;;;;;;;14.07;4.40;;;15.00;99.90;;;;;;5036893;28;20025;-68
2022/10/23 03:25:31;;;;;;;9.35;3.20;;;15.10;99.90;;;;;;5053032;28;20048;-67
2022/10/23 03:27:59;;;;;;;11.75;3.20;;;14.90;99.90;;;;;;5053345;28;20109;-68
2022/10/23 03:30:25;;;;;;;10.57;3.80;;;15.10;99.90;;;;;;5054001;28;20028;-67
2022/10/23 03:32:53;;;;;;;12.98;3.25;;;15.10;99.90;;;;;;5071464;28;20017;-68
2022/10/23 03:35:19;;;;;;;10.25;3.00;;;15.10;99.90;;;;;;5071080;28;20629;-67
2022/10/23 03:37:44;;;;;;;9.38;2.97;;;15.10;99.90;;;;;;5054137;28;20024;-67
2022/10/23 03:40:11;;;;;;;16.95;3.55;;;15.10;99.90;;;;;;5057437;28;20082;-67
2022/10/23 03:42:37;;;;;;;22.80;3.80;;;15.10;99.90;;;;;;5074682;28;20466;-68
2022/10/23 03:45:03;;;;;;;9.30;3.45;;;15.10;99.90;;;;;;5074167;28;20112;-67
2022/10/23 03:47:29;;;;;;;10.07;3.50;;;15.20;99.90;;;;;;5057026;28;20032;-68
2022/10/23 03:49:56;;;;;;;8.10;2.88;;;15.30;99.90;;;;;;5057267;28;20048;-68
2022/10/23 03:52:22;;;;;;;10.77;3.75;;;15.30;99.90;;;;;;5056955;28;20473;-68
2022/10/23 03:54:49;;;;;;;10.45;3.33;;;15.30;99.90;;;;;;5056887;28;20025;-68
2022/10/23 03:57:16;;;;;;;13.10;3.60;;;15.20;99.90;;;;;;5056746;28;20116;-68
2022/10/23 03:59:42;;;;;;;10.35;3.65;;;15.10;99.90;;;;;;5056996;28;20028;-68
2022/10/23 04:02:08;;;;;;;8.10;3.08;;;15.10;99.90;;;;;;5074554;28;20031;-68
2022/10/23 04:04:34;;;;;;;8.65;2.92;;;15.20;99.90;;;;;;5056722;28;20056;-68
2022/10/23 04:06:59;;;;;;;12.57;3.35;;;15.00;99.90;;;;;;5074594;28;20044;-68
2022/10/23 04:09:25;;;;;;;11.60;3.28;;;14.90;99.90;;;;;;5056878;28;20017;-67
2022/10/23 04:11:51;;;;;;;14.85;3.20;;;14.80;99.90;;;;;;5056577;28;20094;-68
2022/10/23 04:14:17;;;;;;;13.32;3.92;;;14.60;99.90;;;;;;5074355;28;20035;-67
2022/10/23 04:16:43;;;;;;;17.38;4.20;;;14.70;99.90;;;;;;5056222;28;20021;-68
2022/10/23 04:19:09;;;;;;;9.30;3.38;;;14.70;99.90;;;;;;5056375;28;20393;-68
2022/10/23 04:21:34;;;;;;;9.88;3.65;;;14.80;99.90;;;;;;5056703;28;20544;-68
2022/10/23 04:24:00;;;;;;;8.60;3.08;;;14.80;99.90;;;;;;5056223;28;20081;-68
2022/10/23 04:26:28;;;;;;;11.15;3.17;;;14.80;99.90;;;;;;5055657;28;20113;-67
2022/10/23 04:28:53;;;;;;;10.63;3.40;;;14.60;99.90;;;;;;5056262;28;20024;-67
2022/10/23 04:31:19;;;;;;;8.20;3.45;;;14.50;99.90;;;;;;5056590;28;20032;-68
2022/10/23 04:33:45;;;;;;;9.55;3.28;;;14.70;99.90;;;;;;5056202;28;20024;-68
2022/10/23 04:36:27;;;;;;;9.73;3.33;;;14.70;99.90;;;;;;5055965;28;20021;-68
2022/10/23 04:38:53;;;;;;;10.07;3.38;;;14.70;99.90;;;;;;5056143;28;20035;-70
2022/10/23 04:41:19;;;;;;;8.93;3.10;;;14.80;99.90;;;;;;5056228;28;20027;-68
2022/10/23 04:43:45;;;;;;;20.60;3.33;;;14.70;99.90;;;;;;5056053;28;20107;-69
2022/10/23 04:46:12;;;;;;;8.30;2.78;;;14.80;99.90;;;;;;5056072;28;20124;-69
2022/10/23 04:48:38;;;;;;;7.65;2.63;;;14.70;99.90;;;;;;5055377;28;20082;-69
2022/10/23 04:51:19;;;;;;;10.88;2.83;;;14.80;99.90;;;;;;5074525;28;20028;-68
2022/10/23 04:54:03;;;;;;;11.77;3.17;;;14.70;99.90;;;;;;5073602;28;20519;-68
2022/10/23 04:56:41;;;;;;;9.77;3.72;;;14.50;99.90;;;;;;5040881;28;20028;-68
2022/10/23 04:59:11;;;;;;;23.52;3.63;;;14.60;99.90;;;;;;5055654;28;20020;-73
2022/10/23 05:01:39;;;;;;;10.52;3.35;;;14.60;99.90;;;;;;5055712;28;20052;-71
2022/10/23 05:04:06;;;;;;;8.73;2.80;;;14.60;99.90;;;;;;5055927;28;20114;-68
2022/10/23 05:06:40;;;;;;;6.53;3.33;;;14.50;99.90;;;;;;5055497;28;20040;-68
2022/10/23 05:09:21;;;;;;;14.55;3.72;;;14.60;99.90;;;;;;5055068;28;20137;-68
2022/10/23 05:12:06;;;;;;;10.35;2.70;;;14.50;99.90;;;;;;5055800;28;20139;-69
2022/10/23 05:14:32;;;;;;;9.98;3.05;;;14.50;99.90;;;;;;5055510;28;20059;-69
2022/10/23 05:17:01;;;;;;;13.38;3.15;;;14.50;99.90;;;;;;5055384;28;20059;-68
2022/10/23 05:19:33;;;;;;;12.52;3.17;;;14.70;99.90;;;;;;5055067;28;20028;-68
2022/10/23 05:21:59;;;;;;;;;;;14.70;99.90;;;;;;5073751;28;20021;-69
2022/10/23 05:24:32;;;;;;;18.55;3.38;;;14.80;99.90;;;;;;5055019;28;19905;-68
2022/10/23 05:27:00;;;;;;;12.02;3.53;;;14.80;99.90;;;;;;5055302;28;20067;-68
2022/10/23 05:29:29;;;;;;;9.48;2.53;;;14.70;99.90;;;;;;5054989;28;20028;-68
2022/10/23 05:32:00;;;;;;;7.18;2.70;;;14.70;99.90;;;;;;5055223;28;20393;-69
2022/10/23 05:34:32;;;;;;;9.18;3.05;;;14.80;99.90;;;;;;5055305;28;20025;-68
2022/10/23 05:37:00;;;;;;;15.93;3.15;;;14.80;99.90;;;;;;5054666;28;20050;-67
2022/10/23 05:39:28;;;;;;;11.52;3.38;;;14.80;99.90;;;;;;5054866;28;20032;-68
2022/10/23 05:41:55;;;;;;;9.68;3.15;;;14.80;99.90;;;;;;5054857;28;20115;-67
2022/10/23 05:44:23;;;;;;;8.55;2.92;;;14.70;99.90;;;;;;5055002;28;20408;-68
2022/10/23 05:47:11;;;;;;;13.52;3.63;;;14.80;99.90;;;;;;5071970;28;20040;-67
2022/10/23 05:49:40;;;;;;;5.72;3.15;;;14.80;99.90;;;;;;5072534;28;20669;-68
2022/10/23 05:52:24;;;;;;;11.40;3.15;;;14.90;99.90;;;;;;5072723;28;20039;-68
2022/10/23 05:55:04;;;;;;;6.22;2.83;;;14.90;99.90;;;;;;5054789;28;20107;-67
2022/10/23 05:58:05;;;;;;;11.43;2.50;;;14.90;99.90;;;;;;5049227;28;20071;-68
2022/10/23 06:00:55;;;;;;;5.82;2.80;;;14.70;99.90;;;;;;5054112;28;20016;-68
2022/10/23 06:03:41;;;;;;;8.15;3.30;;;14.70;99.90;;;;;;5061686;28;20048;-68
2022/10/23 06:06:10;;;;;;;7.78;3.88;;;14.50;99.90;;;;;;5046524;28;20056;-68
2022/10/23 06:08:45;;;;;;;10.57;3.33;;;14.60;99.90;;;;;;5053801;28;20081;-68
2022/10/23 06:11:13;;;;;;;14.15;3.20;;;14.60;99.90;;;;;;5053443;28;20028;-68
2022/10/23 06:13:44;;;;;;;9.15;2.88;;;14.70;99.90;;;;;;5053834;28;20016;-68
2022/10/23 06:16:24;;;;;;;6.38;2.70;;;14.70;99.90;;;;;;5053120;28;20024;-68
2022/10/23 06:18:51;;;;;;;7.05;3.17;;;14.80;99.90;;;;;;5059796;28;20017;-68
2022/10/23 06:21:18;;;;;;;12.73;3.13;;;14.90;99.90;;;;;;5053329;28;20031;-68
2022/10/23 06:23:47;;;;;;;13.02;3.33;;;14.80;99.90;;;;;;5050167;28;20480;-68
2022/10/23 06:26:24;;;;;;;14.30;3.80;;;14.80;99.90;;;;;;5071299;28;20052;-67
2022/10/23 06:28:57;;;;;;;11.00;5.30;;;14.80;99.90;;;;;;5058987;28;20020;-67
2022/10/23 06:31:26;;;;;;;19.90;5.53;;;14.70;99.90;;;;;;5053283;28;20115;-68
2022/10/23 06:33:54;;;;;;;13.60;5.10;;;14.70;99.90;;;;;;5048183;28;20025;-68
2022/10/23 06:36:20;;;;;;;18.80;6.68;;;14.80;99.90;;;;;;5051430;28;20057;-68
2022/10/23 06:38:46;;;;;;;14.93;5.90;;;14.80;99.90;;;;;;5036819;28;20021;-68
2022/10/23 06:41:18;;;;;;;10.63;4.15;;;14.80;99.90;;;;;;5053551;28;20021;-68
2022/10/23 06:43:49;;;;;;;13.45;4.22;;;14.90;99.90;;;;;;5049996;28;20028;-68
2022/10/23 06:46:22;;;;;;;12.07;3.30;;;14.80;99.90;;;;;;5053210;28;20119;-68
2022/10/23 06:49:17;;;;;;;4.30;2.45;;;14.80;99.90;;;;;;5069489;28;20037;-68
2022/10/23 06:51:46;;;;;;;8.93;3.45;;;14.90;99.90;;;;;;5053097;28;20123;-68
2022/10/23 06:54:13;;;;;;;10.43;3.10;;;14.90;99.90;;;;;;5053280;28;20414;-68
2022/10/23 06:56:57;;;;;;;15.02;3.10;;;14.90;99.90;;;;;;5050555;28;20098;-72
2022/10/23 06:59:33;;;;;;;7.25;2.90;;;14.90;99.90;;;;;;5051762;28;20036;-72
2022/10/23 07:01:59;;;;;;;7.70;2.53;;;14.90;99.90;;;;;;5053385;28;20025;-72
2022/10/23 07:04:25;;;;;;;8.60;2.70;;;15.00;99.90;;;;;;5052745;28;20020;-68
2022/10/23 07:06:58;;;;;;;10.30;2.90;;;15.00;99.90;;;;;;5047969;28;20060;-69
2022/10/23 07:09:31;;;;;;;9.35;2.80;;;15.10;99.90;;;;;;5052417;28;20020;-70
2022/10/23 07:12:32;;;;;;;19.45;3.10;;;15.10;99.90;;;;;;5051239;28;20036;-68
2022/10/23 07:15:20;;;;;;;9.43;2.50;;;15.20;99.90;;;;;;5065110;28;20032;-72
2022/10/23 07:17:47;;;;;;;7.28;2.60;;;15.10;99.90;;;;;;5056478;28;20039;-72
2022/10/23 07:20:13;;;;;;;5.05;2.80;;;15.20;99.90;;;;;;5057508;28;20024;-73
2022/10/23 07:22:39;;;;;;;7.47;2.65;;;15.20;99.90;;;;;;5075108;28;20111;-71
2022/10/23 07:25:11;;;;;;;8.65;2.83;;;15.20;99.90;;;;;;5036256;28;20101;-71
2022/10/23 07:27:38;;;;;;;7.55;3.17;;;15.30;99.90;;;;;;5049704;28;20170;-72
2022/10/23 07:30:06;;;;;;;14.40;3.03;;;15.30;99.90;;;;;;5040000;28;20424;-71
2022/10/23 07:32:41;;;;;;;8.18;3.10;;;15.30;99.90;;;;;;5056376;28;20078;-72
2022/10/23 07:35:25;;;;;;;9.73;3.25;;;15.30;99.90;;;;;;5074357;28;20063;-72
2022/10/23 07:37:57;;;;;;;10.32;3.17;;;15.30;99.90;;;;;;5051194;28;20124;-72
2022/10/23 07:40:24;;;;;;;7.03;2.42;;;15.20;99.90;;;;;;5051860;28;20071;-72
2022/10/23 07:42:53;;;;;;;11.00;3.08;;;15.30;99.90;;;;;;5056123;28;20020;-71
2022/10/23 07:45:19;;;;;;;11.95;3.28;;;15.30;99.90;;;;;;5055936;28;20626;-72
2022/10/23 07:47:51;;;;;;;5.20;2.60;;;15.30;99.90;;;;;;5042523;28;20124;-72
2022/10/23 07:50:18;;;;;;;7.35;2.50;;;15.50;99.90;;;;;;5052070;28;20021;-72
2022/10/23 07:52:44;;;;;;;12.63;2.92;;;15.60;99.90;;;;;;5074092;28;20032;-72
2022/10/23 07:55:15;;;;;;;;;;;15.60;99.90;;;;;;5055947;28;20028;-72
2022/10/23 07:57:57;;;;;;;10.30;3.80;;;15.50;99.90;;;;;;5051192;28;19912;-72
2022/10/23 08:00:40;;;;;;;6.30;2.40;;;15.40;99.90;;;;;;5050796;28;20081;-72
2022/10/23 08:03:30;;;;;;;9.93;3.35;;;15.40;99.90;;;;;;5051532;28;20025;-69
2022/10/23 08:05:57;;;;;;;;;;;15.30;99.90;;;;;;5055089;28;20107;-70
2022/10/23 08:08:24;;;;;;;5.20;2.50;;;15.20;99.90;;;;;;5054949;28;20282;-71
2022/10/23 08:10:54;;;;;;;6.72;2.83;;;15.20;99.90;;;;;;5057191;28;20470;-72
2022/10/23 08:13:25;;;;;;;9.55;2.92;;;15.30;99.90;;;;;;5055958;28;20017;-72
2022/10/23 08:15:58;;;;;;;13.57;3.30;;;15.40;99.90;;;;;;5054365;28;20489;-72
2022/10/23 08:18:48;;;;;;;9.63;3.75;;;15.50;99.90;;;;;;5033195;28;20040;-72
2022/10/23 08:21:16;;;;;;;16.02;4.38;;;15.50;99.90;;;;;;5068422;28;20051;-71
2022/10/23 08:23:43;;;;;;;16.98;5.10;;;15.60;99.90;;;;;;5054449;28;20023;-69
2022/10/23 08:26:10;;;;;;;15.02;3.97;;;15.70;99.90;;;;;;5054760;28;20519;-70
2022/10/23 08:28:36;;;;;;;10.30;4.05;;;15.80;99.90;;;;;;5054893;28;20035;-68
2022/10/23 08:31:09;;;;;;;8.95;3.63;;;15.80;99.90;;;;;;5053834;28;20582;-67
2022/10/23 08:33:35;;;;;;;14.02;3.58;;;15.90;99.90;;;;;;5046273;28;20016;-68
2022/10/23 08:36:01;;;;;;;9.63;3.70;;;16.00;99.90;;;;;;5054061;28;20085;-70
2022/10/23 08:38:32;;;;;;;5.38;3.00;;;16.00;99.90;;;;;;5054809;28;20019;-68
2022/10/23 08:41:00;;;;;;;12.93;2.70;;;16.00;99.90;;;;;;5054965;28;20472;-68
2022/10/23 08:44:00;;;;;;;9.07;3.40;;;16.00;99.90;;;;;;5054631;28;20028;-67
2022/10/23 08:46:39;;;;;;;10.70;3.50;;;15.80;99.90;;;;;;5054222;28;20028;-67
2022/10/23 08:49:39;;;;;;;16.25;4.30;;;15.90;99.90;;;;;;5070557;28;20063;-68
2022/10/23 08:52:31;;;;;;;;;;;16.10;99.90;;;;;;5052376;28;20590;-67
2022/10/23 08:55:28;;;;;;;7.15;3.72;;;16.10;99.90;;;;;;5065587;28;19958;-67
2022/10/23 08:58:03;;;;;;;12.48;4.13;;;16.20;99.90;;;;;;5064977;28;20028;-67
2022/10/23 09:00:29;;;;;;;5.88;2.85;;;16.40;99.90;;;;;;5070200;28;20028;-68
2022/10/23 09:02:55;;;;;;;10.63;2.72;;;16.50;99.90;;;;;;5067955;28;20040;-67
2022/10/23 09:05:33;;;;;;;9.43;3.03;;;16.50;99.90;;;;;;5065981;28;20021;-67
2022/10/23 09:08:24;;;;;;;12.48;3.20;;;16.60;99.90;;;;;;5071247;28;20028;-67
2022/10/23 09:11:08;;;;;;;9.18;2.40;;;16.80;99.90;;;;;;5072699;28;20490;-68
2022/10/23 09:13:52;;;;;;;5.85;2.47;;;16.80;99.90;;;;;;5067916;28;20505;-67
2022/10/23 09:16:45;;;;;;;4.13;2.17;;;16.80;99.90;;;;;;5068632;28;20424;-67
2022/10/23 09:19:15;;;;;;;8.88;3.40;;;16.70;99.90;;;;;;5072402;28;20044;-67
2022/10/23 09:21:43;;;;;;;8.00;2.70;;;16.70;99.90;;;;;;5081427;28;20040;-67
2022/10/23 09:24:20;;;;;;;9.75;2.40;;;16.90;99.90;;;;;;5072350;28;20024;-68
2022/10/23 09:26:48;;;;;;;8.30;2.20;;;17.00;99.90;;;;;;5071536;28;20040;-67
2022/10/23 09:29:34;;;;;;;7.22;2.40;;;17.00;99.90;;;;;;5071567;28;20023;-67
2022/10/23 09:32:03;;;;;;;9.02;2.58;;;17.10;99.90;;;;;;5070417;28;20446;-67
2022/10/23 09:34:30;;;;;;;8.23;2.83;;;17.30;99.90;;;;;;5062902;28;20032;-69
2022/10/23 09:36:57;;;;;;;9.45;2.60;;;17.40;99.90;;;;;;5069833;28;20020;-69
2022/10/23 09:39:34;;;;;;;10.70;2.85;;;17.20;99.90;;;;;;5070722;28;20111;-68
2022/10/23 09:42:12;;;;;;;12.68;2.90;;;17.20;99.90;;;;;;5069747;28;20495;-68
2022/10/23 09:44:48;;;;;;;5.22;2.33;;;17.00;99.90;;;;;;5052871;28;20040;-69
2022/10/23 09:47:19;;;;;;;7.95;2.17;;;17.00;99.90;;;;;;5053746;28;20107;-67
2022/10/23 09:49:50;;;;;;;8.80;2.45;;;16.80;99.90;;;;;;5071798;28;20035;-68
2022/10/23 09:52:16;;;;;;;7.13;2.13;;;16.80;99.90;;;;;;5072062;28;20107;-67
2022/10/23 09:54:58;;;;;;;5.72;2.97;;;16.90;99.90;;;;;;5069097;28;20202;-69
2022/10/23 09:57:39;;;;;;;7.80;2.35;;;16.90;99.90;;;;;;5070502;28;20017;-67
2022/10/23 10:00:18;;;;;;;10.82;2.30;;;17.10;99.90;;;;;;5072304;28;20071;-67
2022/10/23 10:03:02;;;;;;;8.13;2.38;;;17.10;99.90;;;;;;5059547;28;20027;-67
2022/10/23 10:05:40;;;;;;;8.00;2.58;;;17.20;99.90;;;;;;5053445;28;20024;-68
2022/10/23 10:08:38;;;;;;;8.27;2.60;;;17.20;99.90;;;;;;5054058;28;20031;-68
2022/10/23 10:11:06;;;;;;;4.68;2.40;;;17.30;99.90;;;;;;5072271;28;20074;-68
2022/10/23 10:13:32;;;;;;;12.45;2.88;;;17.10;99.90;;;;;;5071741;28;20487;-68
2022/10/23 10:16:19;;;;;;;7.43;2.60;;;17.00;99.90;;;;;;5072201;28;20032;-68
2022/10/23 10:18:55;;;;;;;6.88;3.15;;;17.00;99.90;;;;;;5071140;28;20161;-67
2022/10/23 10:21:27;;;;;;;8.23;3.00;;;17.00;99.90;;;;;;5071382;28;20445;-70
2022/10/23 10:24:17;;;;;;;6.47;2.50;;;17.20;99.90;;;;;;5054444;28;20116;-71
2022/10/23 10:27:06;;;;;;;12.80;2.75;;;17.30;99.90;;;;;;5068502;28;20048;-73
2022/10/23 10:30:00;;;;;;;11.30;3.00;;;17.20;99.90;;;;;;5063111;28;20024;-70
2022/10/23 10:32:45;;;;;;;8.40;2.70;;;17.20;99.90;;;;;;5069290;28;20082;-72
2022/10/23 10:35:54;;;;;;;7.05;2.83;;;17.20;99.90;;;;;;5052276;28;20032;-71
2022/10/23 10:38:29;;;;;;;9.05;3.00;;;17.40;99.90;;;;;;5067856;28;20477;-71
2022/10/23 10:41:43;;;;;;;5.22;2.40;;;17.50;99.90;;;;;;5054132;28;20017;-72
2022/10/23 10:44:33;;;;;;;10.63;2.60;;;17.50;99.90;;;;;;5067198;28;20431;-71
2022/10/23 10:47:21;;;;;;;5.60;2.88;;;17.70;99.90;;;;;;5073357;28;20556;-71
2022/10/23 10:50:07;;;;;;;8.85;3.55;;;17.70;99.90;;;;;;5067238;28;20109;-71
2022/10/23 10:52:51;;;;;;;6.93;2.85;;;17.80;99.90;;;;;;5041215;28;20086;-72
2022/10/23 10:55:28;;;;;;;8.00;3.58;;;17.80;99.90;;;;;;5076066;28;20847;-71
2022/10/23 10:58:03;;;;;;;9.18;2.70;;;17.90;99.90;;;;;;5075395;28;20038;-73
2022/10/23 11:00:32;;;;;;;8.27;3.38;;;17.90;99.90;;;;;;5076021;28;20135;-71
2022/10/23 11:03:18;;;;;;;5.97;2.58;;;17.90;99.90;;;;;;5076118;28;20036;-72
2022/10/23 11:05:47;;;;;;;10.73;3.20;;;17.90;99.90;;;;;;5075983;28;20399;-72
2022/10/23 11:08:26;;;;;;;11.30;3.05;;;18.10;99.90;;;;;;5075822;28;20025;-71
2022/10/23 11:11:12;;;;;;;8.48;2.83;;;18.30;99.90;;;;;;5057601;28;20442;-71
2022/10/23 11:13:43;;;;;;;18.35;2.97;;;18.30;99.90;;;;;;5064774;28;20382;-72
2022/10/23 11:16:46;;;;;;;7.75;2.63;;;18.20;99.90;;;;;;5074800;28;20089;-70
2022/10/23 11:19:23;;;;;;;10.93;2.97;;;18.20;99.90;;;;;;4993197;28;20068;-69
2022/10/23 11:22:04;;;;;;;9.30;2.72;;;18.40;99.90;;;;;;5066073;28;20055;-71
2022/10/23 11:24:40;;;;;;;13.57;3.42;;;18.40;99.90;;;;;;5057608;28;20020;-72
2022/10/23 11:27:13;;;;;;;13.25;2.97;;;18.50;99.90;;;;;;5062531;28;20534;-70
2022/10/23 11:30:16;;;;;;;11.18;3.30;;;18.30;99.90;;;;;;5075045;28;20047;-70
2022/10/23 11:32:54;;;;;;;8.13;3.00;;;18.30;99.90;;;;;;5075293;28;20029;-69
2022/10/23 11:35:51;;;;;;;9.85;3.08;;;18.30;99.90;;;;;;5075592;28;20115;-68
2022/10/23 11:38:18;;;;;;;8.52;3.03;;;18.40;99.90;;;;;;5075245;28;20028;-70
2022/10/23 11:40:47;;;;;;;9.10;3.08;;;18.40;99.90;;;;;;5075058;28;20027;-72
2022/10/23 11:43:24;;;;;;;13.05;2.72;;;18.40;99.90;;;;;;5075638;28;20370;-71
2022/10/23 11:45:50;;;;;;;8.27;2.78;;;18.40;99.90;;;;;;5075410;28;20042;-70
2022/10/23 11:48:43;;;;;;;10.88;2.13;;;18.50;99.90;;;;;;5075224;28;20096;-71
2022/10/23 11:51:27;;;;;;;10.18;2.58;;;18.50;99.90;;;;;;5060981;28;20053;-71
2022/10/23 11:54:03;;;;;;;12.85;3.03;;;18.80;99.90;;;;;;5056944;28;20090;-70
2022/10/23 11:56:30;;;;;;;9.43;2.90;;;19.00;99.90;;;;;;5074667;28;20043;-71
2022/10/23 11:58:58;;;;;;;21.30;2.47;;;19.20;99.90;;;;;;5056230;28;20044;-71
2022/10/23 12:01:38;;;;;;;9.80;2.85;;;19.30;99.90;;;;;;5068883;28;20390;-69
2022/10/23 12:04:12;;;;;;;9.38;2.50;;;19.40;99.90;;;;;;5074564;28;20024;-69
2022/10/23 12:06:42;;;;;;;7.97;3.13;;;19.50;99.90;;;;;;5074911;28;20123;-70
2022/10/23 12:09:24;;;;;;;8.23;2.65;;;19.60;99.90;;;;;;5074545;28;20037;-68
2022/10/23 12:12:02;;;;;;;7.50;2.33;;;19.60;99.90;;;;;;5074989;28;20112;-69
2022/10/23 12:14:39;;;;;;;8.35;2.85;;;19.80;99.90;;;;;;5074595;28;20133;-69
2022/10/23 12:17:21;;;;;;;7.88;3.25;;;19.70;99.90;;;;;;5056515;28;20040;-68
2022/10/23 12:20:11;;;;;;;7.95;3.05;;;19.90;99.90;;;;;;5074550;28;20115;-68
2022/10/23 12:23:17;;;;;;;9.90;3.17;;;19.80;99.90;;;;;;5073933;28;20033;-68
2022/10/23 12:26:09;;;;;;;17.60;3.65;;;19.60;99.90;;;;;;5064239;28;20048;-71
2022/10/23 12:28:59;;;;;;;5.38;2.42;;;19.80;99.90;;;;;;5074105;28;20024;-71
2022/10/23 12:31:44;;;;;;;8.32;2.95;;;19.90;99.90;;;;;;5056338;28;20047;-70
2022/10/23 12:34:28;;;;;;;6.80;3.03;;;19.60;99.90;;;;;;5074547;28;20040;-72
2022/10/23 12:37:13;;;;;;;9.98;3.03;;;20.00;99.90;;;;;;5074305;28;20048;-69
2022/10/23 12:39:39;;;;;;;12.55;3.00;;;19.90;99.90;;;;;;5073724;28;20500;-70
2022/10/23 12:42:25;;;;;;;7.40;3.05;;;20.20;99.90;;;;;;5073990;28;20015;-70
2022/10/23 12:45:01;;;;;;;16.80;3.45;;;20.10;99.90;;;;;;5074094;28;20037;-68
2022/10/23 12:47:28;;;;;;;11.65;2.83;;;20.30;99.90;;;;;;5060681;28;20096;-69
2022/10/23 12:49:54;;;;;;;9.35;2.50;;;20.30;99.90;;;;;;5074097;28;20028;-70
2022/10/23 12:52:23;;;;;;;8.95;2.75;;;20.30;99.90;;;;;;5055736;28;20044;-70
2022/10/23 12:54:49;;;;;;;10.43;2.72;;;20.60;99.90;;;;;;5073650;28;20024;-68
2022/10/23 12:57:27;;;;;;;6.32;2.63;;;20.50;99.90;;;;;;5073883;28;20098;-69
2022/10/23 13:00:01;;;;;;;7.55;2.78;;;20.70;99.90;;;;;;5073796;28;20075;-69
2022/10/23 13:02:29;;;;;;;7.75;3.40;;;20.80;99.90;;;;;;5073601;28;20029;-68
2022/10/23 13:04:58;;;;;;;5.32;2.22;;;20.70;99.90;;;;;;5055725;28;20111;-68
2022/10/23 13:07:32;;;;;;;9.32;2.90;;;20.80;99.90;;;;;;5073421;28;20036;-68
2022/10/23 13:10:01;;;;;;;7.68;2.47;;;20.90;99.90;;;;;;5055529;28;20090;-70
2022/10/23 13:12:34;;;;;;;9.38;3.25;;;20.80;99.90;;;;;;5055187;28;20025;-69
2022/10/23 13:15:05;;;;;;;5.28;2.38;;;20.70;99.90;;;;;;5073441;28;20029;-68
2022/10/23 13:17:34;;;;;;;;;;;20.80;99.90;;;;;;5055742;28;20028;-68
2022/10/23 13:20:21;;;;;;;14.48;2.80;;;20.90;99.90;;;;;;5073145;28;20345;-69
2022/10/23 13:22:52;;;;;;;18.20;2.60;;;20.90;99.90;;;;;;5073353;28;20162;-70